createdAt,value
2022-07-26T00:00:30.190Z,0.00
2022-07-26T00:01:31.948Z,0.00
2022-07-26T00:02:30.272Z,0.00
2022-07-26T00:03:30.142Z,0.00
2022-07-26T00:04:30.156Z,0.00
2022-07-26T00:05:30.148Z,0.00
2022-07-26T00:06:30.108Z,0.00
2022-07-26T00:07:36.425Z,0.00
2022-07-26T00:08:30.094Z,0.00
2022-07-26T00:09:30.103Z,0.00
2022-07-26T00:10:30.068Z,0.00
2022-07-26T00:11:30.076Z,0.00
2022-07-26T00:12:30.047Z,0.00
2022-07-26T00:13:30.232Z,0.00
2022-07-26T00:14:30.046Z,0.00
2022-07-26T00:15:30.014Z,0.00
2022-07-26T00:16:30.067Z,0.00
2022-07-26T00:17:30.001Z,0.00
2022-07-26T00:18:29.979Z,0.00
2022-07-26T00:19:29.993Z,0.00
2022-07-26T00:20:29.963Z,0.00
2022-07-26T00:21:29.982Z,0.00
2022-07-26T00:22:29.938Z,0.00
2022-07-26T00:23:29.943Z,0.00
2022-07-26T00:24:35.088Z,0.00
2022-07-26T00:25:29.909Z,0.00
2022-07-26T00:26:29.901Z,0.00
2022-07-26T00:27:29.880Z,0.00
2022-07-26T00:28:29.879Z,0.00
2022-07-26T00:29:29.880Z,0.00
2022-07-26T00:30:29.857Z,0.00
2022-07-26T00:31:29.884Z,0.00
2022-07-26T00:32:29.836Z,0.00
2022-07-26T00:33:29.838Z,0.00
2022-07-26T00:34:29.852Z,0.00
2022-07-26T00:35:29.800Z,0.00
2022-07-26T00:36:29.813Z,0.00
2022-07-26T00:37:29.797Z,0.00
2022-07-26T00:38:29.775Z,0.00
2022-07-26T00:39:29.772Z,0.00
2022-07-26T00:40:29.762Z,0.00
2022-07-26T00:41:29.736Z,0.00
2022-07-26T00:42:29.732Z,0.00
2022-07-26T00:43:29.718Z,0.00
2022-07-26T00:44:29.744Z,0.00
2022-07-26T00:45:29.716Z,0.00
2022-07-26T00:46:29.820Z,0.00
2022-07-26T00:47:29.685Z,0.00
2022-07-26T00:48:29.698Z,0.00
2022-07-26T00:49:29.678Z,0.00
2022-07-26T00:50:29.649Z,0.00
2022-07-26T00:51:29.639Z,0.00
2022-07-26T00:52:29.627Z,0.00
2022-07-26T00:53:29.610Z,0.00
2022-07-26T00:54:29.649Z,0.00
2022-07-26T00:55:29.647Z,0.00
2022-07-26T00:56:29.585Z,0.00
2022-07-26T00:57:29.599Z,0.00
2022-07-26T00:58:29.566Z,0.00
2022-07-26T00:59:29.566Z,0.00
2022-07-26T01:00:29.543Z,0.00
2022-07-26T01:01:29.600Z,0.00
2022-07-26T01:02:29.631Z,0.00
2022-07-26T01:03:30.402Z,0.00
2022-07-26T01:04:29.519Z,0.00
2022-07-26T01:05:29.508Z,0.00
2022-07-26T01:06:29.493Z,0.00
2022-07-26T01:07:29.483Z,0.00
2022-07-26T01:08:29.459Z,0.00
2022-07-26T01:09:29.454Z,0.00
2022-07-26T01:10:29.463Z,0.00
2022-07-26T01:11:29.451Z,0.00
2022-07-26T01:12:29.415Z,0.00
2022-07-26T01:13:34.672Z,0.00
2022-07-26T01:14:29.417Z,0.00
2022-07-26T01:15:29.397Z,0.00
2022-07-26T01:16:29.428Z,0.00
2022-07-26T01:17:29.399Z,0.00
2022-07-26T01:18:29.352Z,0.00
2022-07-26T01:19:29.352Z,0.00
2022-07-26T01:20:29.353Z,0.00
2022-07-26T01:21:29.328Z,0.00
2022-07-26T01:22:29.317Z,0.00
2022-07-26T01:23:29.297Z,0.00
2022-07-26T01:24:29.326Z,0.00
2022-07-26T01:25:29.278Z,0.00
2022-07-26T01:26:29.271Z,0.00
2022-07-26T01:27:33.787Z,0.00
2022-07-26T01:28:29.249Z,0.00
2022-07-26T01:29:36.202Z,0.00
2022-07-26T01:30:29.227Z,0.00
2022-07-26T01:31:29.272Z,0.00
2022-07-26T01:32:29.215Z,0.00
2022-07-26T01:33:29.193Z,0.00
2022-07-26T01:34:29.198Z,0.00
2022-07-26T01:35:29.274Z,0.00
2022-07-26T01:36:29.162Z,0.00
2022-07-26T01:37:29.145Z,0.00
2022-07-26T01:38:29.145Z,0.00
2022-07-26T01:39:29.143Z,0.00
2022-07-26T01:40:29.119Z,0.00
2022-07-26T01:41:33.571Z,0.00
2022-07-26T01:42:29.098Z,0.00
2022-07-26T01:43:29.088Z,0.00
2022-07-26T01:44:29.087Z,0.00
2022-07-26T01:45:29.093Z,0.00
2022-07-26T01:46:29.136Z,0.00
2022-07-26T01:47:29.042Z,0.00
2022-07-26T01:48:29.065Z,0.00
2022-07-26T01:49:29.039Z,0.00
2022-07-26T01:50:29.007Z,0.00
2022-07-26T01:51:29.005Z,0.00
2022-07-26T01:52:28.993Z,0.00
2022-07-26T01:53:28.982Z,0.00
2022-07-26T01:54:28.982Z,0.00
2022-07-26T01:55:28.960Z,0.00
2022-07-26T01:56:28.948Z,0.00
2022-07-26T01:57:28.939Z,0.00
2022-07-26T01:58:28.946Z,0.00
2022-07-26T01:59:28.930Z,0.00
2022-07-26T02:00:28.908Z,0.00
2022-07-26T02:01:39.453Z,0.00
2022-07-26T02:02:28.979Z,0.00
2022-07-26T02:03:28.876Z,0.00
2022-07-26T02:04:28.872Z,0.00
2022-07-26T02:05:28.853Z,0.00
2022-07-26T02:06:28.836Z,0.00
2022-07-26T02:07:28.832Z,0.00
2022-07-26T02:08:28.814Z,0.00
2022-07-26T02:09:32.008Z,0.00
2022-07-26T02:10:28.811Z,0.00
2022-07-26T02:11:28.794Z,0.00
2022-07-26T02:12:28.772Z,0.00
2022-07-26T02:13:28.768Z,0.00
2022-07-26T02:14:28.772Z,0.00
2022-07-26T02:15:28.750Z,0.00
2022-07-26T02:16:28.802Z,0.00
2022-07-26T02:17:28.726Z,0.00
2022-07-26T02:18:28.710Z,0.00
2022-07-26T02:19:28.722Z,0.00
2022-07-26T02:20:28.689Z,0.00
2022-07-26T02:21:28.682Z,0.00
2022-07-26T02:22:28.673Z,0.00
2022-07-26T02:23:28.661Z,0.00
2022-07-26T02:25:45.300Z,0.00
2022-07-26T02:26:40.872Z,0.00
2022-07-26T02:27:40.856Z,0.00
2022-07-26T02:28:40.853Z,0.00
2022-07-26T02:29:40.845Z,0.00
2022-07-26T02:30:40.837Z,0.00
2022-07-26T02:31:40.881Z,0.00
2022-07-26T02:32:40.809Z,0.00
2022-07-26T02:33:40.797Z,0.00
2022-07-26T02:34:40.802Z,0.00
2022-07-26T02:35:40.779Z,0.00
2022-07-26T02:36:40.767Z,0.00
2022-07-26T02:37:43.482Z,0.00
2022-07-26T02:38:40.746Z,0.00
2022-07-26T02:39:40.746Z,0.00
2022-07-26T02:40:40.730Z,0.00
2022-07-26T02:41:40.712Z,0.00
2022-07-26T02:42:40.707Z,0.00
2022-07-26T02:43:40.693Z,0.00
2022-07-26T02:44:40.700Z,0.00
2022-07-26T02:45:40.674Z,0.00
2022-07-26T02:46:40.667Z,0.00
2022-07-26T02:47:40.597Z,0.00
2022-07-26T02:48:40.623Z,0.00
2022-07-26T02:49:40.651Z,0.00
2022-07-26T02:50:40.625Z,0.00
2022-07-26T02:51:40.608Z,0.00
2022-07-26T02:52:40.561Z,0.00
2022-07-26T02:53:40.535Z,0.00
2022-07-26T02:54:40.552Z,0.00
2022-07-26T02:55:40.573Z,0.00
2022-07-26T02:56:40.519Z,0.00
2022-07-26T02:57:46.578Z,0.00
2022-07-26T02:58:40.494Z,0.00
2022-07-26T02:59:40.485Z,0.00
2022-07-26T03:00:40.469Z,0.00
2022-07-26T03:01:40.552Z,0.00
2022-07-26T03:02:40.516Z,0.00
2022-07-26T03:03:40.435Z,0.00
2022-07-26T03:04:40.448Z,0.00
2022-07-26T03:05:40.411Z,0.00
2022-07-26T03:06:40.414Z,0.00
2022-07-26T03:07:40.391Z,0.00
2022-07-26T03:08:40.387Z,0.00
2022-07-26T03:09:40.370Z,0.00
2022-07-26T03:10:40.379Z,0.00
2022-07-26T03:11:40.349Z,0.00
2022-07-26T03:12:40.348Z,0.00
2022-07-26T03:13:40.338Z,0.00
2022-07-26T03:14:40.323Z,0.00
2022-07-26T03:15:40.351Z,0.00
2022-07-26T03:16:40.318Z,0.00
2022-07-26T03:17:40.285Z,5.62
2022-07-26T03:18:40.282Z,5.62
2022-07-26T03:19:40.267Z,5.62
2022-07-26T03:20:40.275Z,5.62
2022-07-26T03:21:40.264Z,5.62
2022-07-26T03:22:40.243Z,5.62
2022-07-26T03:23:40.301Z,5.62
2022-07-26T03:24:40.219Z,5.62
2022-07-26T03:25:40.220Z,5.62
2022-07-26T03:26:40.202Z,5.62
2022-07-26T03:27:40.190Z,11.25
2022-07-26T03:28:40.178Z,11.25
2022-07-26T03:29:40.163Z,11.25
2022-07-26T03:30:40.241Z,11.25
2022-07-26T03:31:40.165Z,11.25
2022-07-26T03:32:40.197Z,16.88
2022-07-26T03:33:40.126Z,16.88
2022-07-26T03:34:40.117Z,16.88
2022-07-26T03:35:40.115Z,16.88
2022-07-26T03:36:40.098Z,16.88
2022-07-26T03:37:46.094Z,22.50
2022-07-26T03:38:40.084Z,22.50
2022-07-26T03:39:40.060Z,22.50
2022-07-26T03:40:40.067Z,22.50
2022-07-26T03:41:40.040Z,22.50
2022-07-26T03:42:40.032Z,28.12
2022-07-26T03:43:40.023Z,28.12
2022-07-26T03:44:40.015Z,28.12
2022-07-26T03:45:40.020Z,33.75
2022-07-26T03:46:40.038Z,28.12
2022-07-26T03:47:39.977Z,33.75
2022-07-26T03:48:40.036Z,33.75
2022-07-26T03:49:39.965Z,33.75
2022-07-26T03:50:39.963Z,33.75
2022-07-26T03:51:39.939Z,39.38
2022-07-26T03:52:39.935Z,45.00
2022-07-26T03:53:39.928Z,45.00
2022-07-26T03:54:39.929Z,45.00
2022-07-26T03:55:39.896Z,45.00
2022-07-26T03:56:39.889Z,45.00
2022-07-26T03:57:39.877Z,45.00
2022-07-26T03:58:39.870Z,50.62
2022-07-26T03:59:39.872Z,45.00
2022-07-26T04:00:39.854Z,50.62
2022-07-26T04:01:39.889Z,50.62
2022-07-26T04:02:39.887Z,50.62
2022-07-26T04:03:42.171Z,50.62
2022-07-26T04:04:39.844Z,50.62
2022-07-26T04:05:39.789Z,50.62
2022-07-26T04:06:39.789Z,56.25
2022-07-26T04:07:39.774Z,56.25
2022-07-26T04:08:39.766Z,56.25
2022-07-26T04:09:39.750Z,56.25
2022-07-26T04:10:39.756Z,56.25
2022-07-26T04:11:39.733Z,61.88
2022-07-26T04:12:39.728Z,61.88
2022-07-26T04:13:39.710Z,67.50
2022-07-26T04:14:39.720Z,67.50
2022-07-26T04:15:39.705Z,67.50
2022-07-26T04:16:43.415Z,67.50
2022-07-26T04:17:39.667Z,67.50
2022-07-26T04:18:39.664Z,61.88
2022-07-26T04:19:39.887Z,67.50
2022-07-26T04:20:39.654Z,67.50
2022-07-26T04:21:39.628Z,67.50
2022-07-26T04:22:39.620Z,73.12
2022-07-26T04:23:39.609Z,73.12
2022-07-26T04:24:39.608Z,73.12
2022-07-26T04:25:40.921Z,78.75
2022-07-26T04:26:39.587Z,78.75
2022-07-26T04:27:39.573Z,78.75
2022-07-26T04:28:39.572Z,78.75
2022-07-26T04:29:39.545Z,84.38
2022-07-26T04:30:39.601Z,84.38
2022-07-26T04:31:39.526Z,84.38
2022-07-26T04:32:39.532Z,84.38
2022-07-26T04:33:39.503Z,90.00
2022-07-26T04:34:39.500Z,90.00
2022-07-26T04:35:39.500Z,90.00
2022-07-26T04:36:39.479Z,95.62
2022-07-26T04:37:39.463Z,95.62
2022-07-26T04:38:39.457Z,95.62
2022-07-26T04:39:39.443Z,101.25
2022-07-26T04:40:40.980Z,101.25
2022-07-26T04:41:39.420Z,112.50
2022-07-26T04:42:39.414Z,112.50
2022-07-26T04:43:39.408Z,123.75
2022-07-26T04:44:39.404Z,118.12
2022-07-26T04:45:39.436Z,129.38
2022-07-26T04:46:39.408Z,123.75
2022-07-26T04:47:39.398Z,135.00
2022-07-26T04:48:39.401Z,140.62
2022-07-26T04:49:39.340Z,135.00
2022-07-26T04:50:39.352Z,146.25
2022-07-26T04:51:39.316Z,151.88
2022-07-26T04:52:39.316Z,151.88
2022-07-26T04:53:39.317Z,151.88
2022-07-26T04:54:39.302Z,151.88
2022-07-26T04:55:39.289Z,146.25
2022-07-26T04:56:39.271Z,157.50
2022-07-26T04:57:39.259Z,163.12
2022-07-26T04:58:39.251Z,157.50
2022-07-26T04:59:39.235Z,157.50
2022-07-26T05:01:02.811Z,163.12
2022-07-26T05:01:39.255Z,163.12
2022-07-26T05:02:39.255Z,168.75
2022-07-26T05:03:39.240Z,168.75
2022-07-26T05:04:39.192Z,174.38
2022-07-26T05:05:39.180Z,168.75
2022-07-26T05:06:39.184Z,163.12
2022-07-26T05:07:39.152Z,163.12
2022-07-26T05:08:39.147Z,157.50
2022-07-26T05:09:39.134Z,163.12
2022-07-26T05:10:39.141Z,163.12
2022-07-26T05:11:39.107Z,174.38
2022-07-26T05:12:39.103Z,168.75
2022-07-26T05:13:39.091Z,163.12
2022-07-26T05:14:39.083Z,151.88
2022-07-26T05:15:39.078Z,140.62
2022-07-26T05:16:44.011Z,140.62
2022-07-26T05:17:39.052Z,135.00
2022-07-26T05:18:45.456Z,140.62
2022-07-26T05:19:39.033Z,135.00
2022-07-26T05:20:39.051Z,135.00
2022-07-26T05:21:39.006Z,140.62
2022-07-26T05:22:39.003Z,146.25
2022-07-26T05:23:38.989Z,163.12
2022-07-26T05:24:38.980Z,163.12
2022-07-26T05:25:38.981Z,168.75
2022-07-26T05:26:38.962Z,168.75
2022-07-26T05:27:38.951Z,174.38
2022-07-26T05:28:38.939Z,174.38
2022-07-26T05:29:38.927Z,180.00
2022-07-26T05:30:38.967Z,180.00
2022-07-26T05:31:38.948Z,174.38
2022-07-26T05:32:38.900Z,174.38
2022-07-26T05:33:38.884Z,180.00
2022-07-26T05:34:38.875Z,196.88
2022-07-26T05:35:38.874Z,180.00
2022-07-26T05:36:38.860Z,185.62
2022-07-26T05:37:38.839Z,191.25
2022-07-26T05:38:38.835Z,157.50
2022-07-26T05:39:38.820Z,151.88
2022-07-26T05:40:38.824Z,174.38
2022-07-26T05:41:38.804Z,196.88
2022-07-26T05:42:38.789Z,213.75
2022-07-26T05:43:41.183Z,196.88
2022-07-26T05:44:42.756Z,219.38
2022-07-26T05:45:38.798Z,219.38
2022-07-26T05:46:38.755Z,236.25
2022-07-26T05:47:38.842Z,213.75
2022-07-26T05:48:38.834Z,236.25
2022-07-26T05:49:40.064Z,202.50
2022-07-26T05:50:38.725Z,202.50
2022-07-26T05:51:38.696Z,236.25
2022-07-26T05:52:38.688Z,270.00
2022-07-26T05:53:38.677Z,298.12
2022-07-26T05:54:38.670Z,286.88
2022-07-26T05:55:38.661Z,270.00
2022-07-26T05:56:38.658Z,225.00
2022-07-26T05:57:38.630Z,247.50
2022-07-26T05:58:38.625Z,247.50
2022-07-26T05:59:38.611Z,241.88
2022-07-26T06:00:38.619Z,292.50
2022-07-26T06:01:38.589Z,298.12
2022-07-26T06:02:38.653Z,298.12
2022-07-26T06:03:38.569Z,264.38
2022-07-26T06:04:38.665Z,298.12
2022-07-26T06:05:38.558Z,315.00
2022-07-26T06:06:38.546Z,360.00
2022-07-26T06:07:38.532Z,326.25
2022-07-26T06:08:38.520Z,303.75
2022-07-26T06:09:38.516Z,315.00
2022-07-26T06:10:38.509Z,343.12
2022-07-26T06:11:38.491Z,382.50
2022-07-26T06:12:38.494Z,337.50
2022-07-26T06:13:38.474Z,298.12
2022-07-26T06:14:38.456Z,292.50
2022-07-26T06:15:38.460Z,298.12
2022-07-26T06:16:38.494Z,348.75
2022-07-26T06:17:38.459Z,360.00
2022-07-26T06:18:38.415Z,388.12
2022-07-26T06:19:38.410Z,365.62
2022-07-26T06:20:38.404Z,354.38
2022-07-26T06:21:38.385Z,360.00
2022-07-26T06:22:38.374Z,371.25
2022-07-26T06:23:38.370Z,360.00
2022-07-26T06:24:38.350Z,382.50
2022-07-26T06:25:38.359Z,360.00
2022-07-26T06:26:38.331Z,303.75
2022-07-26T06:27:38.326Z,326.25
2022-07-26T06:28:38.308Z,348.75
2022-07-26T06:29:38.338Z,331.88
2022-07-26T06:30:38.426Z,303.75
2022-07-26T06:31:38.381Z,388.12
2022-07-26T06:32:38.266Z,354.38
2022-07-26T06:33:38.263Z,382.50
2022-07-26T06:34:38.248Z,376.88
2022-07-26T06:35:38.259Z,376.88
2022-07-26T06:36:38.235Z,382.50
2022-07-26T06:37:38.226Z,388.12
2022-07-26T06:38:38.207Z,371.25
2022-07-26T06:39:38.209Z,427.50
2022-07-26T06:40:38.203Z,444.38
2022-07-26T06:41:38.183Z,405.00
2022-07-26T06:42:38.173Z,393.75
2022-07-26T06:43:38.166Z,360.00
2022-07-26T06:44:38.149Z,388.12
2022-07-26T06:45:38.230Z,382.50
2022-07-26T06:46:38.127Z,337.50
2022-07-26T06:47:38.122Z,388.12
2022-07-26T06:48:38.158Z,376.88
2022-07-26T06:49:38.137Z,405.00
2022-07-26T06:50:38.095Z,427.50
2022-07-26T06:51:38.080Z,360.00
2022-07-26T06:52:38.078Z,455.62
2022-07-26T06:53:38.056Z,472.50
2022-07-26T06:54:38.040Z,444.38
2022-07-26T06:55:38.047Z,405.00
2022-07-26T06:56:38.021Z,320.62
2022-07-26T06:57:45.009Z,354.38
2022-07-26T06:58:38.012Z,421.88
2022-07-26T06:59:37.998Z,399.38
2022-07-26T07:00:38.174Z,421.88
2022-07-26T07:01:59.304Z,450.00
2022-07-26T07:02:37.975Z,478.12
2022-07-26T07:03:37.962Z,478.12
2022-07-26T07:04:38.184Z,466.88
2022-07-26T07:05:37.945Z,421.88
2022-07-26T07:06:37.921Z,461.25
2022-07-26T07:07:37.913Z,506.25
2022-07-26T07:08:37.899Z,517.50
2022-07-26T07:09:37.898Z,601.88
2022-07-26T07:10:37.890Z,630.00
2022-07-26T07:11:37.876Z,601.88
2022-07-26T07:12:37.878Z,500.62
2022-07-26T07:13:37.899Z,506.25
2022-07-26T07:14:37.836Z,562.50
2022-07-26T07:15:37.844Z,624.38
2022-07-26T07:16:37.903Z,596.25
2022-07-26T07:17:37.816Z,455.62
2022-07-26T07:18:37.799Z,556.88
2022-07-26T07:19:37.796Z,399.38
2022-07-26T07:20:37.824Z,421.88
2022-07-26T07:21:37.795Z,365.62
2022-07-26T07:22:37.756Z,376.88
2022-07-26T07:23:37.758Z,405.00
2022-07-26T07:24:37.779Z,523.12
2022-07-26T07:25:37.744Z,399.38
2022-07-26T07:26:37.723Z,455.62
2022-07-26T07:27:37.712Z,579.38
2022-07-26T07:28:37.707Z,506.25
2022-07-26T07:29:47.198Z,478.12
2022-07-26T07:30:37.688Z,596.25
2022-07-26T07:31:48.767Z,511.88
2022-07-26T07:32:37.728Z,450.00
2022-07-26T07:33:52.725Z,562.50
2022-07-26T07:34:37.642Z,613.12
2022-07-26T07:35:37.642Z,489.38
2022-07-26T07:36:37.615Z,585.00
2022-07-26T07:37:53.713Z,483.75
2022-07-26T07:38:37.608Z,478.12
2022-07-26T07:39:38.640Z,309.38
2022-07-26T07:40:37.604Z,331.88
2022-07-26T07:41:37.584Z,360.00
2022-07-26T07:42:37.570Z,590.62
2022-07-26T07:43:37.554Z,590.62
2022-07-26T07:44:37.534Z,613.12
2022-07-26T07:45:37.577Z,371.25
2022-07-26T07:46:37.536Z,382.50
2022-07-26T07:47:37.514Z,601.88
2022-07-26T07:48:37.593Z,646.88
2022-07-26T07:49:37.496Z,618.75
2022-07-26T07:50:37.485Z,590.62
2022-07-26T07:51:37.480Z,765.00
2022-07-26T07:52:37.452Z,703.12
2022-07-26T07:53:37.440Z,652.50
2022-07-26T07:54:37.430Z,725.62
2022-07-26T07:55:41.018Z,556.88
2022-07-26T07:56:37.420Z,731.25
2022-07-26T07:57:37.438Z,939.38
2022-07-26T07:58:37.386Z,2874.38
2022-07-26T07:59:39.187Z,5754.38
2022-07-26T08:00:37.494Z,5754.38
2022-07-26T08:01:40.442Z,630.00
2022-07-26T08:02:37.358Z,4314.38
2022-07-26T08:03:38.257Z,5754.38
2022-07-26T08:04:37.436Z,500.62
2022-07-26T08:05:40.334Z,4314.38
2022-07-26T08:06:37.308Z,7194.38
2022-07-26T08:07:37.303Z,7194.38
2022-07-26T08:08:37.301Z,2874.38
2022-07-26T08:09:37.315Z,1006.88
2022-07-26T08:10:38.698Z,2874.38
2022-07-26T08:11:37.293Z,7194.38
2022-07-26T08:12:37.257Z,5754.38
2022-07-26T08:13:37.240Z,5754.38
2022-07-26T08:14:37.227Z,1417.50
2022-07-26T08:15:39.263Z,7194.38
2022-07-26T08:16:37.286Z,7194.38
2022-07-26T08:17:38.053Z,2874.38
2022-07-26T08:18:42.018Z,843.75
2022-07-26T08:19:41.869Z,1046.25
2022-07-26T08:20:37.172Z,1186.88
2022-07-26T08:21:37.195Z,888.75
2022-07-26T08:22:37.143Z,1186.88
2022-07-26T08:23:37.146Z,8634.38
2022-07-26T08:24:37.124Z,7194.38
2022-07-26T08:25:42.563Z,2874.38
2022-07-26T08:26:37.123Z,2874.38
2022-07-26T08:27:40.833Z,714.38
2022-07-26T08:28:47.405Z,2874.38
2022-07-26T08:29:37.088Z,720.00
2022-07-26T08:30:37.183Z,686.25
2022-07-26T08:31:37.166Z,669.38
2022-07-26T08:32:37.048Z,613.12
2022-07-26T08:33:37.036Z,478.12
2022-07-26T08:34:37.020Z,534.38
2022-07-26T08:35:37.018Z,315.00
2022-07-26T08:36:41.970Z,354.38
2022-07-26T08:37:37.008Z,371.25
2022-07-26T08:38:36.993Z,478.12
2022-07-26T08:39:36.974Z,528.75
2022-07-26T08:40:36.985Z,472.50
2022-07-26T08:41:37.010Z,371.25
2022-07-26T08:42:36.938Z,320.62
2022-07-26T08:43:50.617Z,315.00
2022-07-26T08:44:36.939Z,337.50
2022-07-26T08:45:36.930Z,281.25
2022-07-26T08:46:37.022Z,393.75
2022-07-26T08:47:50.339Z,534.38
2022-07-26T08:48:38.613Z,489.38
2022-07-26T08:49:36.883Z,472.50
2022-07-26T08:50:36.867Z,444.38
2022-07-26T08:51:36.884Z,388.12
2022-07-26T08:52:36.855Z,393.75
2022-07-26T08:53:36.840Z,360.00
2022-07-26T08:54:36.855Z,399.38
2022-07-26T08:56:04.404Z,416.25
2022-07-26T08:56:36.818Z,405.00
2022-07-26T08:57:36.792Z,489.38
2022-07-26T08:58:36.827Z,455.62
2022-07-26T08:59:36.776Z,343.12
2022-07-26T09:00:36.816Z,343.12
2022-07-26T09:01:36.803Z,360.00
2022-07-26T09:02:36.741Z,405.00
2022-07-26T09:03:36.835Z,286.88
2022-07-26T09:04:43.594Z,376.88
2022-07-26T09:05:36.718Z,343.12
2022-07-26T09:06:36.710Z,326.25
2022-07-26T09:07:36.692Z,354.38
2022-07-26T09:08:36.677Z,348.75
2022-07-26T09:09:36.676Z,360.00
2022-07-26T09:10:39.263Z,371.25
2022-07-26T09:11:36.664Z,596.25
2022-07-26T09:12:36.634Z,624.38
2022-07-26T09:13:36.636Z,759.38
2022-07-26T09:14:36.629Z,562.50
2022-07-26T09:15:36.616Z,421.88
2022-07-26T09:16:39.792Z,360.00
2022-07-26T09:17:36.609Z,286.88
2022-07-26T09:18:36.596Z,253.12
2022-07-26T09:19:36.588Z,202.50
2022-07-26T09:20:36.558Z,185.62
2022-07-26T09:21:36.565Z,180.00
2022-07-26T09:22:36.534Z,202.50
2022-07-26T09:23:36.526Z,236.25
2022-07-26T09:24:36.526Z,264.38
2022-07-26T09:25:36.522Z,298.12
2022-07-26T09:26:36.546Z,427.50
2022-07-26T09:27:36.504Z,500.62
2022-07-26T09:28:36.476Z,607.50
2022-07-26T09:29:36.478Z,669.38
2022-07-26T09:30:36.460Z,725.62
2022-07-26T09:31:36.609Z,556.88
2022-07-26T09:32:36.436Z,646.88
2022-07-26T09:33:36.429Z,568.12
2022-07-26T09:34:36.413Z,438.75
2022-07-26T09:35:52.494Z,382.50
2022-07-26T09:36:36.408Z,360.00
2022-07-26T09:37:36.387Z,376.88
2022-07-26T09:38:36.379Z,365.62
2022-07-26T09:39:36.368Z,343.12
2022-07-26T09:40:36.358Z,331.88
2022-07-26T09:41:36.374Z,286.88
2022-07-26T09:42:36.341Z,258.75
2022-07-26T09:43:36.325Z,315.00
2022-07-26T09:44:37.483Z,382.50
2022-07-26T09:45:36.312Z,405.00
2022-07-26T09:46:36.379Z,365.62
2022-07-26T09:47:36.372Z,365.62
2022-07-26T09:49:07.118Z,376.88
2022-07-26T09:49:40.290Z,354.38
2022-07-26T09:50:36.273Z,331.88
2022-07-26T09:51:36.299Z,360.00
2022-07-26T09:52:36.234Z,455.62
2022-07-26T09:53:36.226Z,466.88
2022-07-26T09:54:36.219Z,630.00
2022-07-26T09:55:44.266Z,607.50
2022-07-26T09:56:36.209Z,573.75
2022-07-26T09:57:36.188Z,495.00
2022-07-26T09:58:36.167Z,630.00
2022-07-26T09:59:36.170Z,680.62
2022-07-26T10:00:36.191Z,714.38
2022-07-26T10:01:36.194Z,669.38
2022-07-26T10:02:36.202Z,590.62
2022-07-26T10:03:36.120Z,534.38
2022-07-26T10:04:36.109Z,534.38
2022-07-26T10:05:36.115Z,691.88
2022-07-26T10:06:36.099Z,765.00
2022-07-26T10:07:36.086Z,759.38
2022-07-26T10:08:36.070Z,748.12
2022-07-26T10:09:36.062Z,641.25
2022-07-26T10:10:36.048Z,641.25
2022-07-26T10:11:36.042Z,759.38
2022-07-26T10:12:36.049Z,866.25
2022-07-26T10:13:36.037Z,680.62
2022-07-26T10:14:36.008Z,607.50
2022-07-26T10:15:36.066Z,523.12
2022-07-26T10:16:35.984Z,483.75
2022-07-26T10:17:36.009Z,483.75
2022-07-26T10:18:35.998Z,427.50
2022-07-26T10:19:40.966Z,371.25
2022-07-26T10:20:35.967Z,393.75
2022-07-26T10:21:36.082Z,337.50
2022-07-26T10:22:35.940Z,331.88
2022-07-26T10:23:35.932Z,315.00
2022-07-26T10:24:35.942Z,315.00
2022-07-26T10:25:35.927Z,348.75
2022-07-26T10:26:35.898Z,466.88
2022-07-26T10:27:35.892Z,444.38
2022-07-26T10:28:35.880Z,438.75
2022-07-26T10:29:35.856Z,421.88
2022-07-26T10:30:35.892Z,450.00
2022-07-26T10:31:35.948Z,444.38
2022-07-26T10:32:35.847Z,472.50
2022-07-26T10:33:35.835Z,545.62
2022-07-26T10:34:35.810Z,528.75
2022-07-26T10:35:35.798Z,658.12
2022-07-26T10:36:35.790Z,596.25
2022-07-26T10:37:35.785Z,579.38
2022-07-26T10:38:35.770Z,568.12
2022-07-26T10:39:35.762Z,669.38
2022-07-26T10:40:35.750Z,691.88
2022-07-26T10:41:35.740Z,658.12
2022-07-26T10:42:35.739Z,618.75
2022-07-26T10:43:41.098Z,568.12
2022-07-26T10:44:35.715Z,517.50
2022-07-26T10:45:35.691Z,495.00
2022-07-26T10:46:35.725Z,421.88
2022-07-26T10:47:35.686Z,382.50
2022-07-26T10:48:35.714Z,343.12
2022-07-26T10:49:35.650Z,315.00
2022-07-26T10:50:35.647Z,320.62
2022-07-26T10:51:35.649Z,337.50
2022-07-26T10:52:35.632Z,337.50
2022-07-26T10:53:35.611Z,337.50
2022-07-26T10:54:35.621Z,354.38
2022-07-26T10:55:35.600Z,343.12
2022-07-26T10:56:35.630Z,371.25
2022-07-26T10:57:35.619Z,382.50
2022-07-26T10:58:35.598Z,388.12
2022-07-26T10:59:57.837Z,365.62
2022-07-26T11:00:35.589Z,298.12
2022-07-26T11:01:35.671Z,388.12
2022-07-26T11:02:35.685Z,466.88
2022-07-26T11:03:38.753Z,466.88
2022-07-26T11:04:35.532Z,478.12
2022-07-26T11:05:35.502Z,579.38
2022-07-26T11:06:35.512Z,663.75
2022-07-26T11:07:35.513Z,641.25
2022-07-26T11:08:35.490Z,545.62
2022-07-26T11:09:35.485Z,483.75
2022-07-26T11:10:35.469Z,399.38
2022-07-26T11:11:35.448Z,478.12
2022-07-26T11:12:35.462Z,365.62
2022-07-26T11:13:35.442Z,405.00
2022-07-26T11:14:35.422Z,444.38
2022-07-26T11:15:35.448Z,427.50
2022-07-26T11:16:35.429Z,444.38
2022-07-26T11:17:35.415Z,478.12
2022-07-26T11:18:35.387Z,489.38
2022-07-26T11:19:35.376Z,410.62
2022-07-26T11:20:35.357Z,405.00
2022-07-26T11:21:35.351Z,438.75
2022-07-26T11:22:35.355Z,540.00
2022-07-26T11:23:35.330Z,568.12
2022-07-26T11:24:35.318Z,607.50
2022-07-26T11:25:35.305Z,714.38
2022-07-26T11:26:35.307Z,866.25
2022-07-26T11:27:35.296Z,928.12
2022-07-26T11:28:35.279Z,855.00
2022-07-26T11:29:38.684Z,849.38
2022-07-26T11:30:35.276Z,815.62
2022-07-26T11:31:50.520Z,838.12
2022-07-26T11:32:35.293Z,821.25
2022-07-26T11:33:35.229Z,787.50
2022-07-26T11:34:35.230Z,821.25
2022-07-26T11:35:35.205Z,680.62
2022-07-26T11:36:35.215Z,601.88
2022-07-26T11:37:35.195Z,624.38
2022-07-26T11:38:35.177Z,613.12
2022-07-26T11:39:35.203Z,641.25
2022-07-26T11:40:35.166Z,646.88
2022-07-26T11:41:35.231Z,669.38
2022-07-26T11:42:35.154Z,691.88
2022-07-26T11:43:35.140Z,736.88
2022-07-26T11:44:35.115Z,720.00
2022-07-26T11:45:35.118Z,652.50
2022-07-26T11:46:35.162Z,635.62
2022-07-26T11:47:35.083Z,579.38
2022-07-26T11:48:35.117Z,506.25
2022-07-26T11:49:52.292Z,472.50
2022-07-26T11:50:35.065Z,405.00
2022-07-26T11:51:35.065Z,365.62
2022-07-26T11:52:35.036Z,331.88
2022-07-26T11:53:35.345Z,303.75
2022-07-26T11:54:35.009Z,241.88
2022-07-26T11:55:35.005Z,196.88
2022-07-26T11:56:35.016Z,202.50
2022-07-26T11:57:34.979Z,168.75
2022-07-26T11:58:34.971Z,157.50
2022-07-26T11:59:34.968Z,168.75
2022-07-26T12:00:34.959Z,202.50
2022-07-26T12:01:34.940Z,180.00
2022-07-26T12:02:34.954Z,151.88
2022-07-26T12:03:34.916Z,168.75
2022-07-26T12:04:35.016Z,157.50
2022-07-26T12:05:35.092Z,146.25
2022-07-26T12:06:34.896Z,135.00
2022-07-26T12:07:34.897Z,140.62
2022-07-26T12:08:34.870Z,151.88
2022-07-26T12:09:34.891Z,163.12
2022-07-26T12:10:34.851Z,157.50
2022-07-26T12:11:34.835Z,180.00
2022-07-26T12:12:34.846Z,213.75
2022-07-26T12:13:39.847Z,191.25
2022-07-26T12:14:34.819Z,191.25
2022-07-26T12:15:34.860Z,174.38
2022-07-26T12:16:34.849Z,135.00
2022-07-26T12:17:35.804Z,129.38
2022-07-26T12:18:34.769Z,140.62
2022-07-26T12:19:34.769Z,157.50
2022-07-26T12:20:34.761Z,163.12
2022-07-26T12:21:34.738Z,168.75
2022-07-26T12:22:34.760Z,129.38
2022-07-26T12:23:34.722Z,95.62
2022-07-26T12:24:34.715Z,78.75
2022-07-26T12:25:34.701Z,67.50
2022-07-26T12:26:34.878Z,50.62
2022-07-26T12:27:34.691Z,39.38
2022-07-26T12:28:34.670Z,33.75
2022-07-26T12:29:34.656Z,33.75
2022-07-26T12:30:34.723Z,39.38
2022-07-26T12:31:34.766Z,45.00
2022-07-26T12:32:34.683Z,22.50
2022-07-26T12:33:34.613Z,16.88
2022-07-26T12:34:34.605Z,22.50
2022-07-26T12:35:34.622Z,33.75
2022-07-26T12:36:34.592Z,39.38
2022-07-26T12:37:40.427Z,39.38
2022-07-26T12:38:34.578Z,45.00
2022-07-26T12:39:34.554Z,45.00
2022-07-26T12:40:34.548Z,50.62
2022-07-26T12:41:34.530Z,61.88
2022-07-26T12:42:34.790Z,84.38
2022-07-26T12:43:34.568Z,67.50
2022-07-26T12:44:34.519Z,78.75